createdAt,value
2018-04-24T00:00:02.855Z,95024.19
2018-04-24T00:02:29.215Z,95026.61
2018-04-24T00:04:55.805Z,95019.22
2018-04-24T00:07:22.110Z,95028.58
2018-04-24T00:09:48.574Z,95026.66
2018-04-24T00:12:15.021Z,95026.08
2018-04-24T00:14:41.368Z,95023.67
2018-04-24T00:17:07.734Z,95029.34
2018-04-24T00:19:34.074Z,95026.47
2018-04-24T00:22:00.471Z,95023.55
2018-04-24T00:24:26.933Z,95022.81
2018-04-24T00:26:53.367Z,95024.02
2018-04-24T00:29:19.775Z,95030.30
2018-04-24T00:31:46.125Z,95027.81
2018-04-24T00:34:12.580Z,95029.31
2018-04-24T00:36:39.123Z,95025.75
2018-04-24T00:39:05.530Z,95032.66
2018-04-24T00:41:31.855Z,95029.45
2018-04-24T00:43:58.291Z,95027.50
2018-04-24T00:46:24.789Z,95037.28
2018-04-24T00:48:51.144Z,95047.42
2018-04-24T00:51:17.545Z,95049.61
2018-04-24T00:53:43.896Z,95049.84
2018-04-24T00:56:10.353Z,95053.66
2018-04-24T00:58:36.725Z,95057.88
2018-04-24T01:01:03.052Z,95062.55
2018-04-24T01:03:29.458Z,95064.52
2018-04-24T01:05:55.917Z,95055.37
2018-04-24T01:08:22.270Z,95066.06
2018-04-24T01:10:48.586Z,95063.41
2018-04-24T01:13:14.956Z,95058.67
2018-04-24T01:15:41.352Z,95055.66
2018-04-24T01:18:07.673Z,95061.20
2018-04-24T01:20:34.066Z,95055.71
2018-04-24T01:23:00.409Z,95058.94
2018-04-24T01:25:26.779Z,95066.89
2018-04-24T01:27:53.138Z,95068.06
2018-04-24T01:30:19.515Z,95065.25
2018-04-24T01:32:45.948Z,95068.91
2018-04-24T01:35:12.277Z,95060.88
2018-04-24T01:37:38.657Z,95062.52
2018-04-24T01:40:04.993Z,95057.89
2018-04-24T01:42:31.349Z,95056.08
2018-04-24T01:44:57.681Z,95055.20
2018-04-24T01:47:24.003Z,95063.85
2018-04-24T01:49:50.381Z,95064.27
2018-04-24T01:52:16.722Z,95059.92
2018-04-24T01:54:43.084Z,95060.64
2018-04-24T01:57:09.494Z,95062.39
2018-04-24T01:59:35.834Z,95064.15
2018-04-24T02:02:02.178Z,95063.38
2018-04-24T02:04:28.708Z,95070.76
2018-04-24T02:06:55.064Z,95054.48
2018-04-24T02:09:21.458Z,95072.00
2018-04-24T02:11:47.836Z,95066.97
2018-04-24T02:14:14.292Z,95064.58
2018-04-24T02:16:40.649Z,95083.98
2018-04-24T02:19:06.987Z,95081.65
2018-04-24T02:21:35.383Z,95084.71
2018-04-24T02:24:01.732Z,95074.16
2018-04-24T02:26:28.140Z,95082.55
2018-04-24T02:28:54.534Z,95083.38
2018-04-24T02:31:20.901Z,95083.89
2018-04-24T02:33:47.314Z,95091.44
2018-04-24T02:36:13.776Z,95085.51
2018-04-24T02:38:40.159Z,95097.36
2018-04-24T02:41:06.523Z,95097.88
2018-04-24T02:43:32.931Z,95091.77
2018-04-24T02:45:59.300Z,95093.20
2018-04-24T02:48:25.848Z,95091.72
2018-04-24T02:50:52.243Z,95100.05
2018-04-24T02:53:18.609Z,95094.34
2018-04-24T02:55:44.995Z,95096.47
2018-04-24T02:58:11.413Z,95087.17
2018-04-24T03:00:37.825Z,95090.44
2018-04-24T03:03:04.170Z,95089.14
2018-04-24T03:05:30.565Z,95084.80
2018-04-24T03:07:56.961Z,95091.83
2018-04-24T03:10:23.294Z,95087.55
2018-04-24T03:12:49.673Z,95085.57
2018-04-24T03:15:16.012Z,95080.66
2018-04-24T03:17:42.345Z,95086.04
2018-04-24T03:20:08.753Z,95085.16
2018-04-24T03:22:35.173Z,95062.97
2018-04-24T03:25:01.612Z,95084.83
2018-04-24T03:27:28.025Z,95082.42
2018-04-24T03:29:54.525Z,95082.11
2018-04-24T03:32:20.955Z,95082.41
2018-04-24T03:34:47.321Z,95088.22
2018-04-24T03:37:13.697Z,95087.91
2018-04-24T03:39:40.069Z,95088.78
2018-04-24T03:42:06.419Z,95100.69
2018-04-24T03:44:32.745Z,95088.56
2018-04-24T03:46:59.110Z,95099.50
2018-04-24T03:49:25.485Z,95099.27
2018-04-24T03:51:51.894Z,95095.95
2018-04-24T03:54:18.336Z,95098.58
2018-04-24T03:56:44.739Z,95094.41
2018-04-24T03:59:11.131Z,95105.60
2018-04-24T04:01:37.487Z,95103.62
2018-04-24T04:04:03.829Z,95109.41
2018-04-24T04:06:30.305Z,95116.57
2018-04-24T04:08:56.631Z,95115.92
2018-04-24T04:11:22.948Z,95122.69
2018-04-24T04:13:49.428Z,95127.80
2018-04-24T04:16:15.859Z,95122.53
2018-04-24T04:18:42.219Z,95128.25
2018-04-24T04:21:08.577Z,95133.59
2018-04-24T04:23:35.005Z,95133.34
2018-04-24T04:26:01.427Z,95134.56
2018-04-24T04:28:27.757Z,95139.20
2018-04-24T04:30:54.247Z,95138.59
2018-04-24T04:33:20.609Z,95134.05
2018-04-24T04:35:46.977Z,95143.52
2018-04-24T04:38:13.310Z,95146.90
2018-04-24T04:40:39.663Z,95147.23
2018-04-24T04:43:06.041Z,95140.81
2018-04-24T04:45:32.457Z,95149.35
2018-04-24T04:47:58.859Z,95150.27
2018-04-24T04:50:25.288Z,95144.94
2018-04-24T04:52:51.665Z,95153.17
2018-04-24T04:55:18.008Z,95152.22
2018-04-24T04:57:44.372Z,95150.08
2018-04-24T05:00:10.724Z,95149.25
2018-04-24T05:02:37.122Z,95142.61
2018-04-24T05:05:03.502Z,95152.25
2018-04-24T05:07:29.869Z,95150.30
2018-04-24T05:09:56.260Z,95148.81
2018-04-24T05:12:22.627Z,95150.45
2018-04-24T05:14:49.052Z,95146.26
2018-04-24T05:17:15.447Z,95133.98
2018-04-24T05:19:41.772Z,95156.09
2018-04-24T05:22:08.246Z,95145.24
2018-04-24T05:24:34.676Z,95149.61
2018-04-24T05:27:01.066Z,95154.41
2018-04-24T05:29:27.469Z,95162.27
2018-04-24T05:31:53.864Z,95154.19
2018-04-24T05:34:20.321Z,95159.04
2018-04-24T05:36:46.702Z,95158.03
2018-04-24T05:39:13.197Z,95163.09
2018-04-24T05:41:39.699Z,95158.91
2018-04-24T05:44:06.121Z,95165.34
2018-04-24T05:46:32.481Z,95170.55
2018-04-24T05:48:58.922Z,95166.52
2018-04-24T05:51:25.513Z,95163.94
2018-04-24T05:53:51.979Z,95168.02
2018-04-24T05:56:18.365Z,95160.72
2018-04-24T05:58:44.696Z,95172.42
2018-04-24T06:01:11.744Z,95170.61
2018-04-24T06:03:38.719Z,95164.83
2018-04-24T06:06:05.463Z,95155.58
2018-04-24T06:08:32.697Z,95170.94
2018-04-24T06:10:59.978Z,95168.23
2018-04-24T06:13:27.736Z,95171.04
2018-04-24T06:15:54.299Z,95157.59
2018-04-24T06:18:20.732Z,95167.83
2018-04-24T06:20:47.435Z,95170.17
2018-04-24T06:23:14.379Z,95158.77
2018-04-24T06:25:41.071Z,95164.58
2018-04-24T06:28:07.577Z,95172.28
2018-04-24T06:30:35.681Z,95173.22
2018-04-24T06:33:02.218Z,95175.61
2018-04-24T06:35:28.663Z,95175.44
2018-04-24T06:37:55.208Z,95171.67
2018-04-24T06:40:21.568Z,95176.63
2018-04-24T06:42:47.996Z,95175.61
2018-04-24T06:45:14.492Z,95175.14
2018-04-24T06:47:41.116Z,95171.89
2018-04-24T06:50:07.731Z,95168.00
2018-04-24T06:52:34.240Z,95184.73
2018-04-24T06:55:00.919Z,95188.28
2018-04-24T06:57:27.768Z,95173.17
2018-04-24T06:59:55.125Z,95188.38
2018-04-24T07:07:25.787Z,95180.73
2018-04-24T07:10:00.188Z,95168.16
2018-04-24T07:12:26.743Z,95181.56
2018-04-24T07:14:53.129Z,95182.75
2018-04-24T07:17:19.526Z,95173.38
2018-04-24T07:19:46.000Z,95182.06
2018-04-24T07:22:12.552Z,95184.83
2018-04-24T07:24:39.068Z,95178.72
2018-04-24T07:27:05.514Z,95180.27
2018-04-24T07:29:32.039Z,95185.66
2018-04-24T07:31:58.567Z,95192.73
2018-04-24T07:34:25.050Z,95199.81
2018-04-24T07:36:52.081Z,95190.56
2018-04-24T07:39:18.814Z,95198.29
2018-04-24T07:41:45.334Z,95190.68
2018-04-24T07:44:11.810Z,95182.91
2018-04-24T07:46:38.298Z,95179.53
2018-04-24T07:49:04.666Z,95184.08
2018-04-24T07:51:31.247Z,95189.94
2018-04-24T07:53:57.727Z,95179.15
2018-04-24T07:56:24.217Z,95159.89
2018-04-24T07:58:50.737Z,95190.91
2018-04-24T08:01:17.105Z,95181.27
2018-04-24T08:03:43.530Z,95170.13
2018-04-24T08:06:10.056Z,95171.86
2018-04-24T08:08:36.710Z,95150.19
2018-04-24T08:11:03.237Z,95165.98
2018-04-24T08:13:29.595Z,95165.92
2018-04-24T08:15:55.963Z,95168.86
2018-04-24T08:18:22.836Z,95160.97
2018-04-24T08:20:49.239Z,95163.69
2018-04-24T08:23:15.632Z,95158.14
2018-04-24T08:25:41.993Z,95157.17
2018-04-24T08:28:08.361Z,95158.30
2018-04-24T08:30:34.836Z,95140.31
2018-04-24T08:33:01.342Z,95155.20
2018-04-24T08:35:27.762Z,95153.92
2018-04-24T08:37:54.413Z,95133.11
2018-04-24T08:40:20.766Z,95156.96
2018-04-24T08:42:47.189Z,95146.84
2018-04-24T08:45:13.565Z,95133.88
2018-04-24T08:47:40.487Z,95155.89
2018-04-24T08:50:14.400Z,95146.25
2018-04-24T08:52:41.588Z,95142.16
2018-04-24T08:55:08.093Z,95139.60
2018-04-24T08:57:34.518Z,95140.13
2018-04-24T09:10:44.013Z,95137.18
2018-04-24T09:13:11.206Z,95137.14
2018-04-24T09:15:37.926Z,95137.84
2018-04-24T09:18:05.238Z,95138.13
2018-04-24T09:31:12.199Z,95120.96
2018-04-24T09:33:38.675Z,95114.34
2018-04-24T09:36:05.135Z,95120.69
2018-04-24T09:38:31.647Z,95108.88
2018-04-24T09:51:38.734Z,95092.10
2018-04-24T09:54:05.223Z,95094.90
2018-04-24T09:56:32.026Z,95077.73
2018-04-24T09:58:58.546Z,95092.66
2018-04-24T10:11:30.754Z,95076.43
2018-04-24T10:13:57.197Z,95070.88
2018-04-24T10:16:23.701Z,95065.31
2018-04-24T10:18:50.349Z,95069.67
2018-04-24T10:21:16.725Z,95066.05
2018-04-24T10:23:43.246Z,95052.28
2018-04-24T10:26:09.674Z,95054.41
2018-04-24T10:28:36.123Z,95048.86
2018-04-24T10:31:02.798Z,95043.22
2018-04-24T10:33:29.400Z,95046.73
2018-04-24T10:35:55.921Z,95043.98
2018-04-24T10:38:22.268Z,95046.86
2018-04-24T10:40:48.599Z,95041.16
2018-04-24T10:43:14.995Z,95037.46
2018-04-24T10:45:41.400Z,95032.80
2018-04-24T10:48:07.789Z,95029.59
2018-04-24T10:50:42.228Z,95035.12
2018-04-24T10:53:08.978Z,95010.00
2018-04-24T10:55:35.364Z,94994.66
2018-04-24T10:58:01.769Z,95013.27
2018-04-24T11:00:28.197Z,95008.63
2018-04-24T11:10:29.272Z,95008.09
2018-04-24T11:12:55.815Z,95002.09
2018-04-24T11:15:22.405Z,94985.00
2018-04-24T11:17:48.966Z,94992.20
2018-04-24T11:20:15.782Z,94996.44
2018-04-24T11:22:42.643Z,94987.86
2018-04-24T11:25:09.414Z,94991.20
2018-04-24T11:27:36.878Z,94972.58
2018-04-24T11:30:03.580Z,94986.05
2018-04-24T11:32:30.351Z,94970.52
2018-04-24T11:34:57.865Z,94978.09
2018-04-24T11:37:24.901Z,94975.23
2018-04-24T11:39:51.402Z,94971.77
2018-04-24T11:42:17.770Z,94965.16
2018-04-24T11:44:44.192Z,94961.73
2018-04-24T11:47:11.157Z,94960.12
2018-04-24T11:49:37.690Z,94957.86
2018-04-24T11:52:04.018Z,94960.95
2018-04-24T11:54:30.399Z,94949.34
2018-04-24T11:56:56.785Z,94941.75
2018-04-24T11:59:23.165Z,94938.06
2018-04-24T12:01:49.532Z,94952.80
2018-04-24T12:09:18.784Z,94932.83
2018-04-24T12:11:45.173Z,94925.37
2018-04-24T12:29:21.050Z,94917.62
2018-04-24T12:31:47.436Z,94923.47
2018-04-24T12:34:13.793Z,94910.95
2018-04-24T12:36:40.233Z,94893.63
2018-04-24T12:39:06.587Z,94895.10
2018-04-24T12:41:33.054Z,94896.62
2018-04-24T12:43:59.445Z,94895.01
2018-04-24T12:46:25.852Z,94884.80
2018-04-24T12:48:52.255Z,94887.84
2018-04-24T12:51:18.696Z,94880.00
2018-04-24T12:53:45.136Z,94876.69
2018-04-24T12:56:11.672Z,94876.22
2018-04-24T12:58:40.283Z,94875.99
2018-04-24T13:01:06.757Z,94875.78
2018-04-24T13:03:33.378Z,94875.92
2018-04-24T13:05:59.823Z,94864.75
2018-04-24T13:08:26.339Z,94875.97
2018-04-24T13:10:52.764Z,94864.54
2018-04-24T13:13:19.226Z,94861.98
2018-04-24T13:15:45.651Z,94847.14
2018-04-24T13:18:12.315Z,94844.82
2018-04-24T13:20:38.755Z,94853.58
2018-04-24T13:23:05.177Z,94857.27
2018-04-24T13:25:31.743Z,94851.38
2018-04-24T13:27:58.096Z,94857.41
2018-04-24T13:30:24.578Z,94846.69
2018-04-24T13:32:51.010Z,94850.22
2018-04-24T13:35:17.640Z,94841.80
2018-04-24T13:37:44.276Z,94843.56
2018-04-24T13:40:18.617Z,94828.55
2018-04-24T13:42:45.003Z,94840.83
2018-04-24T13:45:11.406Z,94845.15
2018-04-24T13:47:38.303Z,94840.23
2018-04-24T13:50:04.739Z,94830.66
2018-04-24T13:52:31.197Z,94834.50
2018-04-24T13:54:57.601Z,94826.47
2018-04-24T13:57:25.099Z,94834.17
2018-04-24T13:59:58.621Z,94833.45
2018-04-24T14:02:25.037Z,94828.06
2018-04-24T14:04:51.426Z,94822.92
2018-04-24T14:07:17.825Z,94816.64
2018-04-24T14:27:59.396Z,94818.50
2018-04-24T14:48:41.236Z,94823.95
2018-04-24T14:51:07.735Z,94816.09
2018-04-24T14:53:34.072Z,94812.26
2018-04-24T14:56:00.463Z,94809.14
2018-04-24T14:58:26.790Z,94816.97
2018-04-24T15:01:00.212Z,94808.86
2018-04-24T15:03:26.600Z,94811.21
2018-04-24T15:05:52.964Z,94820.41
2018-04-24T15:08:19.353Z,94816.55
2018-04-24T15:29:00.858Z,94806.41
2018-04-24T15:31:27.180Z,94784.50
2018-04-24T15:33:53.606Z,94786.77
2018-04-24T15:36:20.064Z,94801.70
2018-04-24T15:38:46.392Z,94800.66
2018-04-24T15:41:12.756Z,94808.00
2018-04-24T15:43:39.105Z,94806.47
2018-04-24T15:46:05.486Z,94808.66
2018-04-24T15:48:31.842Z,94811.26
2018-04-24T15:51:05.623Z,94811.92
2018-04-24T15:53:32.045Z,94815.92
2018-04-24T15:55:58.412Z,94803.35
2018-04-24T15:58:24.776Z,94805.66
2018-04-24T16:11:32.801Z,94790.39
2018-04-24T16:13:59.124Z,94794.53
2018-04-24T16:16:25.490Z,94791.44
2018-04-24T16:18:51.808Z,94798.76
2018-04-24T16:21:18.220Z,94801.34
2018-04-24T16:31:18.748Z,94809.27
2018-04-24T16:33:45.108Z,94811.64
2018-04-24T16:36:11.431Z,94807.53
2018-04-24T16:38:37.764Z,94820.38
2018-04-24T16:41:04.120Z,94807.81
2018-04-24T16:43:30.432Z,94814.03
2018-04-24T16:45:56.804Z,94817.56
2018-04-24T16:48:23.144Z,94819.03
2018-04-24T16:50:57.070Z,94825.09
2018-04-24T16:53:23.396Z,94832.77
2018-04-24T16:55:49.753Z,94825.56
2018-04-24T16:58:16.087Z,94832.91
2018-04-24T17:00:42.501Z,94837.93
2018-04-24T17:03:08.808Z,94833.86
2018-04-24T17:05:35.138Z,94838.37
2018-04-24T17:08:01.464Z,94846.77
2018-04-24T17:10:34.904Z,94842.77
2018-04-24T17:13:01.280Z,94852.23
2018-04-24T17:15:27.600Z,94868.78
2018-04-24T17:17:53.945Z,94865.46
2018-04-24T17:20:20.265Z,94880.50
2018-04-24T17:22:46.592Z,94888.04
2018-04-24T17:25:12.972Z,94896.81
2018-04-24T17:27:39.288Z,94904.02
2018-04-24T17:30:05.650Z,94911.38
2018-04-24T17:32:31.976Z,94916.87
2018-04-24T17:34:58.340Z,94923.77
2018-04-24T17:37:24.692Z,94926.83
2018-04-24T17:39:59.037Z,94933.56
2018-04-24T17:42:25.495Z,94935.69
2018-04-24T17:44:51.823Z,94950.39
2018-04-24T17:47:18.183Z,94953.11
2018-04-24T18:00:25.474Z,94967.50
2018-04-24T18:02:51.808Z,94970.91
2018-04-24T18:05:18.223Z,94970.49
2018-04-24T18:07:44.540Z,94982.39
2018-04-24T18:20:51.771Z,95019.11
2018-04-24T18:23:18.136Z,95022.50
2018-04-24T18:25:44.512Z,95015.60
2018-04-24T18:28:10.878Z,95030.39
2018-04-24T18:30:37.204Z,95021.69
2018-04-24T18:33:03.611Z,95016.96
2018-04-24T18:35:29.953Z,95008.77
2018-04-24T18:37:56.279Z,94996.06
2018-04-24T18:40:22.640Z,94975.85
2018-04-24T18:42:48.948Z,94983.14
2018-04-24T18:45:15.288Z,95001.03
2018-04-24T18:47:41.620Z,95007.30
2018-04-24T18:50:15.108Z,95014.39
2018-04-24T19:00:15.696Z,95015.11
2018-04-24T19:02:42.076Z,95022.63
2018-04-24T19:05:08.428Z,95023.58
2018-04-24T19:07:34.796Z,95022.55
2018-04-24T19:10:01.126Z,95015.22
2018-04-24T19:12:27.485Z,95019.28
2018-04-24T19:14:53.890Z,95014.98
2018-04-24T19:17:20.323Z,95027.80
2018-04-24T19:19:46.650Z,95019.08
2018-04-24T19:39:53.043Z,95082.03
2018-04-24T19:42:19.396Z,95081.95
2018-04-24T19:52:20.049Z,95071.98
2018-04-24T19:54:46.337Z,95073.37
2018-04-24T19:57:12.696Z,95081.71
2018-04-24T19:59:46.676Z,95097.66
2018-04-24T20:02:13.062Z,95124.28
2018-04-24T20:04:39.391Z,95141.78
2018-04-24T20:07:05.792Z,95152.70
2018-04-24T20:19:38.123Z,95186.88
2018-04-24T20:22:04.448Z,95199.06
2018-04-24T20:24:30.782Z,95201.55
2018-04-24T20:26:57.169Z,95216.87
2018-04-24T20:29:30.588Z,95233.36
2018-04-24T20:31:56.946Z,95247.78
2018-04-24T20:34:23.292Z,95241.69
2018-04-24T20:36:49.620Z,95211.43
2018-04-24T20:39:15.992Z,95183.20
2018-04-24T20:41:42.325Z,95192.51
2018-04-24T20:44:08.733Z,95204.56
2018-04-24T20:46:35.095Z,95202.28
2018-04-24T20:49:01.460Z,95174.92
2018-04-24T20:51:27.841Z,95171.93
2018-04-24T20:53:54.209Z,95168.98
2018-04-24T20:56:20.584Z,95165.06
2018-04-24T20:58:46.973Z,95193.64
2018-04-24T21:01:13.369Z,95196.80
2018-04-24T21:03:39.693Z,95192.35
2018-04-24T21:06:06.075Z,95190.13
2018-04-24T21:08:32.436Z,95184.23
2018-04-24T21:11:06.298Z,95184.50
2018-04-24T21:13:32.635Z,95193.28
2018-04-24T21:15:58.996Z,95191.57
2018-04-24T21:18:25.348Z,95180.25
2018-04-24T21:39:06.999Z,95186.65
2018-04-24T21:41:33.351Z,95185.30
2018-04-24T21:43:59.664Z,95180.81
2018-04-24T21:46:25.993Z,95163.44
2018-04-24T21:48:52.318Z,95163.23
2018-04-24T21:51:18.637Z,95151.92
2018-04-24T21:53:44.969Z,95147.15
2018-04-24T21:56:11.325Z,95136.62
2018-04-24T21:58:37.656Z,95119.16
2018-04-24T22:01:03.967Z,95121.31
2018-04-24T22:03:30.276Z,95117.73
2018-04-24T22:05:56.598Z,95123.25
2018-04-24T22:08:22.917Z,95137.70
2018-04-24T22:10:49.223Z,95139.92
2018-04-24T22:13:15.572Z,95133.30
2018-04-24T22:15:41.877Z,95126.92
2018-04-24T22:18:08.246Z,95135.48
2018-04-24T22:20:42.549Z,95123.25
2018-04-24T22:23:08.865Z,95127.89
2018-04-24T22:25:35.172Z,95121.69
2018-04-24T22:28:01.536Z,95119.11
2018-04-24T22:30:27.849Z,95115.24
2018-04-24T22:37:56.992Z,95112.34
2018-04-24T22:40:30.599Z,95108.63
2018-04-24T22:42:56.892Z,95107.53
2018-04-24T22:45:23.204Z,95115.17
2018-04-24T22:47:49.515Z,95120.30
2018-04-24T22:50:15.864Z,95114.92
2018-04-24T22:52:42.182Z,95113.70
2018-04-24T22:55:08.560Z,95114.97
2018-04-24T22:57:34.903Z,95107.22
2018-04-24T23:00:01.214Z,95102.52
2018-04-24T23:02:27.565Z,95105.89
2018-04-24T23:04:53.877Z,95102.58
2018-04-24T23:07:20.236Z,95108.36
2018-04-24T23:09:53.882Z,95113.22
2018-04-24T23:12:20.227Z,95116.16
2018-04-24T23:14:46.575Z,95119.88
2018-04-24T23:17:12.914Z,95119.39
2018-04-24T23:19:39.268Z,95126.64
2018-04-24T23:22:05.600Z,95133.50
2018-04-24T23:24:31.972Z,95141.66
2018-04-24T23:26:58.327Z,95138.75
2018-04-24T23:29:24.726Z,95150.02
2018-04-24T23:31:51.049Z,95145.92
2018-04-24T23:34:17.382Z,95145.32
2018-04-24T23:36:43.704Z,95149.88
2018-04-24T23:39:10.027Z,95143.42
2018-04-24T23:41:36.350Z,95142.14
2018-04-24T23:44:02.674Z,95130.77
2018-04-24T23:46:29.040Z,95134.72
2018-04-24T23:48:55.378Z,95139.67
2018-04-24T23:51:21.696Z,95143.64
2018-04-24T23:53:48.021Z,95137.96
2018-04-24T23:56:14.327Z,95134.56
2018-04-24T23:58:40.646Z,95139.80
